VOBZ/VGA METAR and TAF weather

Enter ICAO airport designator
Station Type Date Time Source
VOBZ METAR 2020/12/05 05:30 UTC NOAA

VOBZ 050530Z 06011KT 5000 HZ NSC 28/19 Q1013 NOSIG


Station Type Date Time Source
VOBZ Decoded METAR 2020/12/05 05:30 UTC NOAA

Vijayawada / Gannavaram, India (VOBZ) 16-32N 080-48E 24M
Dec 05, 2020 - 12:30 AM EST / 2020.12.05 0530 UTC
Wind: from the ENE (060 degrees) at 13 MPH (11 KT):0
Visibility: 3 mile(s):0
Weather: haze
Temperature: 82 F (28 C)
Dew Point: 66 F (19 C)
Relative Humidity: 58%
Pressure (altimeter): 29.91 in. Hg (1013 hPa)
ob: VOBZ 050530Z 06011KT 5000 HZ NSC 28/19 Q1013 NOSIG
cycle: 5

Station Type Date Time Source
VOBZ TAF 2020/04/22 09:00 UTC NOAA

TAF VOBZ 220800Z 2209/2218 20006KT 6000 SCT020 SCT025

Example: see airport list